Time;durP1;ratioP1;P1;durP2;ratioP2;P2;SDS_P1;SDS_P2;PMS_P1;PMS_P2;Temp;Humidity;BMP_temperature;BMP_pressure;BME280_temperature;BME280_humidity;BME280_pressure;Samples;Min_cycle;Max_cycle;Signal;HPM_P1;HPM_P2
2024/02/20 00:02:05;;;;;;;15.95;1.92;;;;;;;;;;5045249;28;20053;-68
2024/02/20 00:04:32;;;;;;;9.95;1.88;;;;;;;;;;5037516;28;20411;-68
2024/02/20 00:06:59;;;;;;;9.60;1.58;;;;;;;;;;4981639;28;20221;-70
2024/02/20 00:09:26;;;;;;;15.18;1.85;;;;;;;;;;4981510;28;20068;-70
2024/02/20 00:11:54;;;;;;;21.42;2.97;;;;;;;;;;5004696;28;20062;-67
2024/02/20 00:14:23;;;;;;;15.50;1.95;;;;;;;;;;4973737;28;20069;-67
2024/02/20 00:16:50;;;;;;;7.53;1.40;;;;;;;;;;4974179;28;20054;-70
2024/02/20 00:19:18;;;;;;;14.23;2.10;;;;;;;;;;4969176;28;20078;-67
2024/02/20 00:21:46;;;;;;;7.28;1.52;;;;;;;;;;4973819;28;20140;-70
2024/02/20 00:24:13;;;;;;;13.00;1.65;;;;;;;;;;4972310;28;20050;-69
2024/02/20 00:26:41;;;;;;;11.90;2.05;;;;;;;;;;4968596;28;20069;-66
2024/02/20 00:29:10;;;;;;;14.80;2.20;;;;;;;;;;4977037;28;20068;-68
2024/02/20 00:31:37;;;;;;;22.35;3.05;;;;;;;;;;4970387;28;20170;-70
2024/02/20 00:34:04;;;;;;;14.57;3.22;;;;;;;;;;4975899;28;20054;-67
2024/02/20 00:36:31;;;;;;;9.80;2.03;;;;;;;;;;4966497;28;20202;-67
2024/02/20 00:38:57;;;;;;;11.48;1.75;;;;;;;;;;4977377;28;20057;-67
2024/02/20 00:41:27;;;;;;;16.35;2.05;;;;;;;;;;4972991;28;20089;-69
2024/02/20 00:43:54;;;;;;;14.52;2.58;;;;;;;;;;4975712;28;20062;-68
2024/02/20 00:46:24;;;;;;;18.38;2.10;;;;;;;;;;4972391;28;20047;-68
2024/02/20 00:48:51;;;;;;;15.07;2.08;;;;;;;;;;4973735;28;20099;-69
2024/02/20 00:51:23;;;;;;;15.73;1.90;;;;;;;;;;4970701;28;20563;-66
2024/02/20 00:53:51;;;;;;;15.18;2.20;;;;;;;;;;4981300;28;20541;-68
2024/02/20 00:56:21;;;;;;;14.15;2.17;;;;;;;;;;4967472;28;20054;-67
2024/02/20 00:58:50;;;;;;;10.75;1.75;;;;;;;;;;4976174;28;20137;-67
2024/02/20 01:01:17;;;;;;;19.33;2.33;;;;;;;;;;4975426;28;20054;-69
2024/02/20 01:03:47;;;;;;;12.68;2.17;;;;;;;;;;4974105;28;20086;-66
2024/02/20 01:06:15;;;;;;;8.73;1.70;;;;;;;;;;4967957;28;20095;-68
2024/02/20 01:08:41;;;;;;;8.63;2.15;;;;;;;;;;4975588;28;20050;-68
2024/02/20 01:11:08;;;;;;;15.07;2.10;;;;;;;;;;4968265;28;20046;-66
2024/02/20 01:13:36;;;;;;;6.03;1.48;;;;;;;;;;4980980;28;20051;-66
2024/02/20 01:16:03;;;;;;;14.52;2.00;;;;;;;;;;4973927;28;20399;-68
2024/02/20 01:18:30;;;;;;;14.38;1.70;;;;;;;;;;4967365;28;20054;-68
2024/02/20 01:20:58;;;;;;;10.68;1.95;;;;;;;;;;4990353;28;20058;-67
2024/02/20 01:23:25;;;;;;;16.75;1.67;;;;;;;;;;4966446;28;20109;-65
2024/02/20 01:25:52;;;;;;;20.10;2.22;;;;;;;;;;4965615;28;20130;-66
2024/02/20 01:28:19;;;;;;;19.25;2.13;;;;;;;;;;4967010;28;20065;-69
2024/02/20 01:30:48;;;;;;;12.30;1.95;;;;;;;;;;4999870;28;20065;-70
2024/02/20 01:33:18;;;;;;;10.80;1.67;;;;;;;;;;4971162;28;20046;-66
2024/02/20 01:35:46;;;;;;;10.30;1.90;;;;;;;;;;4968227;28;20062;-66
2024/02/20 01:38:14;;;;;;;11.27;1.73;;;;;;;;;;4976762;28;20038;-69
2024/02/20 01:40:41;;;;;;;;;;;;;;;;;;4976240;28;20137;-66
2024/02/20 01:43:08;;;;;;;10.95;2.03;;;;;;;;;;4972356;28;20078;-67
2024/02/20 01:45:36;;;;;;;8.18;1.80;;;;;;;;;;4959105;28;20063;-66
2024/02/20 01:48:04;;;;;;;9.35;1.48;;;;;;;;;;5005149;28;20313;-66
2024/02/20 01:50:34;;;;;;;17.48;2.03;;;;;;;;;;4969090;28;20280;-65
2024/02/20 01:53:02;;;;;;;9.93;1.55;;;;;;;;;;4984244;28;20078;-65
2024/02/20 01:55:30;;;;;;;22.73;2.47;;;;;;;;;;4955112;28;20138;-68
2024/02/20 01:57:58;;;;;;;10.18;1.65;;;;;;;;;;4984477;28;20127;-65
2024/02/20 02:00:25;;;;;;;15.43;2.08;;;;;;;;;;4965902;28;20082;-67
2024/02/20 02:02:52;;;;;;;20.58;1.80;;;;;;;;;;4974018;28;20074;-69
2024/02/20 02:05:22;;;;;;;15.20;2.30;;;;;;;;;;4973492;28;20099;-69
2024/02/20 02:07:49;;;;;;;13.25;1.50;;;;;;;;;;4980869;28;20078;-70
2024/02/20 02:10:16;;;;;;;20.67;2.20;;;;;;;;;;4975784;28;20479;-70
2024/02/20 02:12:46;;;;;;;13.57;2.55;;;;;;;;;;4974683;28;20050;-67
2024/02/20 02:15:16;;;;;;;12.73;1.70;;;;;;;;;;4969735;28;20070;-69
2024/02/20 02:17:42;;;;;;;9.88;2.03;;;;;;;;;;4979675;28;20051;-69
2024/02/20 02:20:10;;;;;;;8.98;2.47;;;;;;;;;;4975364;28;20056;-70
2024/02/20 02:22:37;;;;;;;12.70;2.78;;;;;;;;;;4974578;28;20145;-69
2024/02/20 02:25:07;;;;;;;11.55;2.20;;;;;;;;;;4965274;28;20074;-68
2024/02/20 02:27:36;;;;;;;7.75;1.65;;;;;;;;;;4949826;28;20048;-69
2024/02/20 02:30:05;;;;;;;14.07;1.38;;;;;;;;;;4980765;28;20047;-70
2024/02/20 02:32:32;;;;;;;9.55;1.90;;;;;;;;;;4971108;28;20521;-68
2024/02/20 02:34:59;;;;;;;9.63;1.75;;;;;;;;;;4970034;28;20042;-69
2024/02/20 02:37:26;;;;;;;12.38;2.05;;;;;;;;;;4971928;28;20066;-68
2024/02/20 02:39:54;;;;;;;16.52;2.53;;;;;;;;;;4963001;28;20065;-67
2024/02/20 02:42:21;;;;;;;7.90;1.95;;;;;;;;;;4975082;28;20050;-66
2024/02/20 02:44:50;;;;;;;10.15;2.20;;;;;;;;;;4970692;28;20066;-70
2024/02/20 02:47:20;;;;;;;14.55;2.30;;;;;;;;;;4971708;28;20046;-67
2024/02/20 02:49:47;;;;;;;17.35;2.53;;;;;;;;;;4973507;28;20074;-68
2024/02/20 02:52:13;;;;;;;12.18;2.30;;;;;;;;;;4993024;28;20050;-68
2024/02/20 02:54:40;;;;;;;11.48;1.85;;;;;;;;;;4969402;28;20050;-69
2024/02/20 02:57:07;;;;;;;11.90;1.80;;;;;;;;;;5007294;28;20051;-69
2024/02/20 02:59:34;;;;;;;17.85;2.15;;;;;;;;;;4985342;28;20062;-66
2024/02/20 03:02:03;;;;;;;14.82;2.03;;;;;;;;;;4966415;28;20058;-66
2024/02/20 03:04:31;;;;;;;;;;;;;;;;;;4961385;28;20046;-68
2024/02/20 03:06:59;;;;;;;10.98;1.70;;;;;;;;;;4962932;28;19932;-69
2024/02/20 03:09:26;;;;;;;14.15;2.40;;;;;;;;;;4973809;28;20070;-66
2024/02/20 03:11:53;;;;;;;14.30;1.70;;;;;;;;;;4968760;28;20100;-67
2024/02/20 03:14:22;;;;;;;9.65;1.75;;;;;;;;;;4980228;28;20062;-66
2024/02/20 03:16:49;;;;;;;6.90;1.65;;;;;;;;;;4972622;28;20046;-67
2024/02/20 03:19:18;;;;;;;18.25;3.13;;;;;;;;;;4985124;28;20051;-69
2024/02/20 03:21:48;;;;;;;17.90;2.38;;;;;;;;;;4957179;28;20056;-66
2024/02/20 03:24:14;;;;;;;8.65;1.60;;;;;;;;;;4985172;28;20567;-66
2024/02/20 03:26:42;;;;;;;15.60;2.38;;;;;;;;;;4974633;28;20054;-69
2024/02/20 03:29:09;;;;;;;14.23;1.92;;;;;;;;;;5032209;28;20556;-68
2024/02/20 03:31:36;;;;;;;16.88;1.80;;;;;;;;;;4974299;28;20053;-68
2024/02/20 03:34:02;;;;;;;14.15;2.05;;;;;;;;;;4963897;28;20055;-68
2024/02/20 03:36:30;;;;;;;13.25;1.98;;;;;;;;;;4971203;28;21378;-70
2024/02/20 03:38:57;;;;;;;14.13;2.05;;;;;;;;;;4971249;28;20111;-66
2024/02/20 03:41:25;;;;;;;13.50;1.90;;;;;;;;;;4971984;28;20157;-66
2024/02/20 03:43:52;;;;;;;11.73;1.63;;;;;;;;;;4965358;28;20058;-67
2024/02/20 03:46:19;;;;;;;10.88;1.85;;;;;;;;;;4973709;28;20058;-71
2024/02/20 03:48:45;;;;;;;15.40;2.10;;;;;;;;;;4974630;28;20053;-66
2024/02/20 03:51:12;;;;;;;11.93;1.45;;;;;;;;;;4968425;28;20428;-67
2024/02/20 03:53:41;;;;;;;11.35;1.75;;;;;;;;;;4988504;28;20067;-67
2024/02/20 03:56:12;;;;;;;17.05;1.83;;;;;;;;;;4972857;28;20054;-66
2024/02/20 03:58:39;;;;;;;11.57;1.67;;;;;;;;;;4977175;28;20054;-65
2024/02/20 04:01:06;;;;;;;9.68;1.70;;;;;;;;;;4973904;28;20569;-66
2024/02/20 04:03:33;;;;;;;9.20;1.63;;;;;;;;;;4973629;28;20050;-65
2024/02/20 04:06:00;;;;;;;12.40;1.52;;;;;;;;;;4963911;28;20065;-67
2024/02/20 04:08:27;;;;;;;13.82;1.70;;;;;;;;;;4984473;28;20050;-68
2024/02/20 04:10:59;;;;;;;10.43;1.83;;;;;;;;;;4990910;28;20069;-69
2024/02/20 04:13:25;;;;;;;17.70;2.28;;;;;;;;;;4969283;28;20077;-67
2024/02/20 04:15:52;;;;;;;11.18;2.22;;;;;;;;;;4968895;28;20192;-70
2024/02/20 04:18:19;;;;;;;12.73;2.00;;;;;;;;;;4977231;28;20056;-70
2024/02/20 04:20:49;;;;;;;8.43;1.55;;;;;;;;;;4968436;28;20050;-67
2024/02/20 04:23:16;;;;;;;7.50;1.50;;;;;;;;;;4976842;28;20065;-67
2024/02/20 04:25:52;;;;;;;13.52;1.60;;;;;;;;;;4961224;28;20070;-68
2024/02/20 04:28:28;;;;;;;10.82;1.95;;;;;;;;;;4977066;28;20054;-68
2024/02/20 04:30:55;;;;;;;17.38;2.13;;;;;;;;;;4973294;28;20047;-70
2024/02/20 04:33:22;;;;;;;19.67;2.03;;;;;;;;;;4966176;28;20074;-70
2024/02/20 04:35:49;;;;;;;14.60;2.38;;;;;;;;;;4984654;28;20058;-69
2024/02/20 04:38:16;;;;;;;9.20;1.75;;;;;;;;;;4974002;28;20054;-69
2024/02/20 04:40:44;;;;;;;13.93;2.05;;;;;;;;;;5001225;28;20071;-67
2024/02/20 04:43:10;;;;;;;14.60;1.95;;;;;;;;;;4976403;28;20050;-69
2024/02/20 04:45:40;;;;;;;10.50;1.58;;;;;;;;;;4969831;28;20107;-67
2024/02/20 04:48:08;;;;;;;10.98;1.85;;;;;;;;;;4967216;28;20941;-70
2024/02/20 04:50:35;;;;;;;17.50;2.10;;;;;;;;;;4978628;28;20361;-67
2024/02/20 04:53:02;;;;;;;13.00;2.03;;;;;;;;;;4975315;28;20043;-67
2024/02/20 04:55:28;;;;;;;11.18;1.85;;;;;;;;;;4970366;28;20050;-67
2024/02/20 04:57:56;;;;;;;6.85;1.80;;;;;;;;;;4968986;28;20058;-66
2024/02/20 05:00:23;;;;;;;9.25;1.73;;;;;;;;;;4970428;28;20137;-69
2024/02/20 05:02:51;;;;;;;17.40;2.10;;;;;;;;;;4971213;28;20383;-66
2024/02/20 05:05:18;;;;;;;12.93;2.08;;;;;;;;;;4968429;28;20073;-65
2024/02/20 05:07:46;;;;;;;8.32;1.77;;;;;;;;;;4983500;28;20046;-68
2024/02/20 05:10:13;;;;;;;15.38;2.45;;;;;;;;;;4971700;28;20068;-67
2024/02/20 05:12:44;;;;;;;13.27;2.15;;;;;;;;;;4976261;28;20196;-67
2024/02/20 05:15:11;;;;;;;10.80;2.03;;;;;;;;;;4977119;28;20046;-67
2024/02/20 05:17:38;;;;;;;10.45;2.20;;;;;;;;;;4965591;28;20050;-66
2024/02/20 05:20:09;;;;;;;10.93;2.22;;;;;;;;;;4972334;28;20103;-67
2024/02/20 05:22:36;;;;;;;14.27;2.30;;;;;;;;;;4976357;28;20053;-68
2024/02/20 05:25:03;;;;;;;13.00;2.15;;;;;;;;;;4970129;28;20053;-70
2024/02/20 05:27:30;;;;;;;8.55;2.05;;;;;;;;;;4975880;28;20050;-68
2024/02/20 05:29:57;;;;;;;9.15;1.83;;;;;;;;;;4991436;28;20061;-69
2024/02/20 05:32:24;;;;;;;14.35;2.10;;;;;;;;;;5000280;28;20048;-69
2024/02/20 05:34:51;;;;;;;12.30;1.88;;;;;;;;;;4946541;28;20051;-69
2024/02/20 05:37:19;;;;;;;9.85;2.00;;;;;;;;;;4971099;28;20058;-67
2024/02/20 05:39:47;;;;;;;9.55;2.35;;;;;;;;;;4970932;28;20055;-67
2024/02/20 05:42:13;;;;;;;8.00;1.83;;;;;;;;;;5009393;27;20048;-67
2024/02/20 05:44:40;;;;;;;7.15;1.83;;;;;;;;;;4982789;28;20069;-66
2024/02/20 05:47:07;;;;;;;16.35;5.20;;;;;;;;;;5011796;28;20052;-69
2024/02/20 05:49:34;;;;;;;32.85;8.00;;;;;;;;;;4993176;28;20047;-67
2024/02/20 05:52:01;;;;;;;9.65;3.40;;;;;;;;;;4966415;28;20119;-69
2024/02/20 05:54:30;;;;;;;4.53;1.85;;;;;;;;;;4961412;28;20576;-69
2024/02/20 05:56:58;;;;;;;6.97;1.63;;;;;;;;;;4969810;28;20055;-68
2024/02/20 05:59:25;;;;;;;11.07;1.95;;;;;;;;;;4983179;28;20058;-68
2024/02/20 06:01:55;;;;;;;15.00;2.13;;;;;;;;;;4966013;28;20480;-67
2024/02/20 06:04:22;;;;;;;9.73;2.03;;;;;;;;;;4979194;28;20063;-70
2024/02/20 06:06:49;;;;;;;12.13;2.03;;;;;;;;;;4968895;28;20058;-68
2024/02/20 06:09:16;;;;;;;11.13;2.00;;;;;;;;;;4975435;28;20130;-67
2024/02/20 06:11:46;;;;;;;12.60;1.58;;;;;;;;;;4971656;28;20137;-67
2024/02/20 06:14:12;;;;;;;14.93;2.40;;;;;;;;;;4957771;28;20111;-70
2024/02/20 06:16:40;;;;;;;17.73;4.25;;;;;;;;;;4984771;28;20123;-66
2024/02/20 06:19:07;;;;;;;12.95;2.90;;;;;;;;;;4972288;28;20050;-68
2024/02/20 06:21:34;;;;;;;10.30;2.17;;;;;;;;;;4973255;28;20046;-68
2024/02/20 06:24:01;;;;;;;10.98;1.90;;;;;;;;;;4965871;28;20061;-67
2024/02/20 06:26:29;;;;;;;15.18;1.90;;;;;;;;;;4969089;28;20197;-66
2024/02/20 06:28:58;;;;;;;11.20;1.65;;;;;;;;;;4966823;28;20116;-67
2024/02/20 06:31:24;;;;;;;;;;;;;;;;;;4966589;28;20076;-66
2024/02/20 06:33:51;;;;;;;10.20;1.50;;;;;;;;;;4960314;28;20431;-67
2024/02/20 06:36:18;;;;;;;13.35;2.88;;;;;;;;;;4976596;28;20130;-67
2024/02/20 06:38:45;;;;;;;11.07;2.15;;;;;;;;;;4971352;28;20055;-66
2024/02/20 06:41:12;;;;;;;6.30;1.90;;;;;;;;;;4973262;28;20108;-65
2024/02/20 06:43:39;;;;;;;10.05;2.58;;;;;;;;;;4966852;28;20131;-69
2024/02/20 06:46:11;;;;;;;23.17;6.38;;;;;;;;;;4969038;28;20065;-66
2024/02/20 06:48:37;;;;;;;18.00;5.75;;;;;;;;;;4983574;28;20062;-66
2024/02/20 06:51:05;;;;;;;21.55;4.57;;;;;;;;;;4996364;28;20078;-66
2024/02/20 06:53:31;;;;;;;16.70;3.92;;;;;;;;;;4970578;28;20054;-67
2024/02/20 06:55:58;;;;;;;17.27;3.85;;;;;;;;;;4998847;28;20137;-67
2024/02/20 06:58:27;;;;;;;13.25;2.88;;;;;;;;;;4978317;28;20420;-68
2024/02/20 07:00:54;;;;;;;12.43;2.55;;;;;;;;;;4976896;28;20077;-69
2024/02/20 07:03:23;;;;;;;10.32;2.33;;;;;;;;;;4975429;28;20606;-66
2024/02/20 07:05:53;;;;;;;11.68;2.30;;;;;;;;;;4961128;28;20062;-66
2024/02/20 07:08:20;;;;;;;10.13;1.92;;;;;;;;;;4971106;28;20089;-66
2024/02/20 07:10:47;;;;;;;12.60;2.33;;;;;;;;;;4975661;28;20058;-68
2024/02/20 07:13:14;;;;;;;16.73;2.75;;;;;;;;;;4974929;28;20047;-66
2024/02/20 07:15:46;;;;;;;13.05;2.47;;;;;;;;;;4975747;28;20506;-66
2024/02/20 07:18:12;;;;;;;11.23;2.55;;;;;;;;;;4974409;28;20082;-68
2024/02/20 07:20:41;;;;;;;13.88;2.92;;;;;;;;;;4984649;28;20054;-66
2024/02/20 07:23:08;;;;;;;10.90;2.20;;;;;;;;;;4989464;28;20058;-67
2024/02/20 07:25:34;;;;;;;9.65;2.20;;;;;;;;;;5005078;28;20058;-67
2024/02/20 07:28:02;;;;;;;6.22;1.55;;;;;;;;;;4969812;28;20055;-68
2024/02/20 07:30:30;;;;;;;9.15;2.10;;;;;;;;;;4978546;28;20054;-67
2024/02/20 07:32:57;;;;;;;11.13;2.60;;;;;;;;;;4994200;28;20081;-66
2024/02/20 07:35:24;;;;;;;20.05;4.53;;;;;;;;;;4974924;28;20062;-66
2024/02/20 07:37:54;;;;;;;15.63;4.10;;;;;;;;;;4975414;28;20058;-64
2024/02/20 07:40:21;;;;;;;13.85;4.00;;;;;;;;;;4978428;28;20150;-67
2024/02/20 07:42:48;;;;;;;15.98;2.40;;;;;;;;;;4975792;28;20233;-68
2024/02/20 07:45:15;;;;;;;11.57;2.58;;;;;;;;;;4978910;28;20058;-69
2024/02/20 07:47:43;;;;;;;9.48;2.63;;;;;;;;;;4976410;28;20129;-69
2024/02/20 07:50:13;;;;;;;10.40;2.25;;;;;;;;;;4975343;28;20065;-68
2024/02/20 07:52:41;;;;;;;13.73;2.72;;;;;;;;;;4992389;28;20057;-65
2024/02/20 07:55:10;;;;;;;11.52;2.53;;;;;;;;;;4985895;28;20061;-65
2024/02/20 07:57:37;;;;;;;10.07;2.28;;;;;;;;;;4993775;28;20058;-65
2024/02/20 08:00:11;;;;;;;16.15;3.17;;;;;;;;;;4976374;28;20316;-68
2024/02/20 08:02:38;;;;;;;8.73;2.72;;;;;;;;;;4978931;28;20567;-66
2024/02/20 08:05:06;;;;;;;13.90;2.90;;;;;;;;;;4969082;28;20134;-65
2024/02/20 08:07:33;;;;;;;10.55;2.55;;;;;;;;;;4986987;28;20069;-65
2024/02/20 08:10:00;;;;;;;12.35;3.38;;;;;;;;;;4972471;28;20050;-67
2024/02/20 08:12:28;;;;;;;15.15;2.38;;;;;;;;;;5006904;28;20058;-67
2024/02/20 08:14:57;;;;;;;6.95;2.15;;;;;;;;;;4973701;28;20055;-68
2024/02/20 08:17:24;;;;;;;13.05;2.80;;;;;;;;;;4978542;28;20101;-66
2024/02/20 08:19:51;;;;;;;6.93;2.22;;;;;;;;;;4972747;28;20054;-68
2024/02/20 08:22:18;;;;;;;11.27;2.47;;;;;;;;;;4976656;28;20082;-68
2024/02/20 08:24:47;;;;;;;14.18;3.42;;;;;;;;;;4974453;28;20058;-68
2024/02/20 08:27:14;;;;;;;19.65;5.30;;;;;;;;;;4978672;28;20584;-66
2024/02/20 08:29:46;;;;;;;13.55;4.80;;;;;;;;;;4980837;28;20489;-68
2024/02/20 08:32:13;;;;;;;14.95;5.07;;;;;;;;;;4976171;28;20141;-66
2024/02/20 08:34:40;;;;;;;13.63;2.63;;;;;;;;;;4973740;28;20050;-68
2024/02/20 08:37:12;;;;;;;11.57;2.50;;;;;;;;;;4977665;28;20062;-69
2024/02/20 08:39:44;;;;;;;16.23;2.78;;;;;;;;;;4976943;28;20101;-68
2024/02/20 08:42:11;;;;;;;14.20;2.95;;;;;;;;;;4971988;28;20185;-65
2024/02/20 08:44:38;;;;;;;14.10;2.63;;;;;;;;;;4975009;28;20261;-69
2024/02/20 08:47:06;;;;;;;9.63;2.35;;;;;;;;;;4976362;28;20556;-66
2024/02/20 08:49:35;;;;;;;11.93;3.28;;;;;;;;;;4978412;28;20062;-67
2024/02/20 08:52:04;;;;;;;;;;;;;;;;;;4969863;28;20093;-65
2024/02/20 08:54:32;;;;;;;10.95;2.35;;;;;;;;;;4999424;28;19975;-68
2024/02/20 08:56:59;;;;;;;10.50;2.75;;;;;;;;;;4977170;28;20058;-66
2024/02/20 08:59:26;;;;;;;8.10;2.38;;;;;;;;;;4974155;28;20288;-69
2024/02/20 09:01:55;;;;;;;14.32;2.80;;;;;;;;;;4972589;28;20054;-67
2024/02/20 09:04:27;;;;;;;13.05;2.88;;;;;;;;;;4971745;28;20061;-69
2024/02/20 09:06:54;;;;;;;21.10;3.22;;;;;;;;;;4967375;28;20083;-66
2024/02/20 09:09:22;;;;;;;13.18;2.90;;;;;;;;;;4977342;28;20042;-69
2024/02/20 09:11:50;;;;;;;9.10;2.70;;;;;;;;;;4976274;28;20062;-70
2024/02/20 09:14:17;;;;;;;16.10;3.60;;;;;;;;;;4958839;28;20163;-68
2024/02/20 09:16:45;;;;;;;15.35;2.83;;;;;;;;;;4978566;28;20594;-68
2024/02/20 09:19:12;;;;;;;12.55;2.65;;;;;;;;;;4993231;28;20077;-65
2024/02/20 09:21:45;;;;;;;12.13;3.05;;;;;;;;;;4975521;28;20065;-66
2024/02/20 09:24:12;;;;;;;12.07;2.97;;;;;;;;;;4971350;28;20058;-65
2024/02/20 09:26:40;;;;;;;12.65;2.65;;;;;;;;;;4975624;28;20057;-69
2024/02/20 09:29:08;;;;;;;12.48;3.42;;;;;;;;;;4992392;28;20061;-70
2024/02/20 09:31:35;;;;;;;21.42;3.15;;;;;;;;;;4978264;28;20050;-69
2024/02/20 09:34:03;;;;;;;13.65;3.13;;;;;;;;;;4967049;28;20123;-69
2024/02/20 09:36:29;;;;;;;11.85;2.70;;;;;;;;;;4976786;28;20050;-66
2024/02/20 09:38:58;;;;;;;12.45;2.67;;;;;;;;;;4972326;28;20058;-68
2024/02/20 09:41:25;;;;;;;11.52;2.65;;;;;;;;;;4978656;28;20058;-67
2024/02/20 09:43:54;;;;;;;11.88;2.40;;;;;;;;;;4958254;28;20062;-66
2024/02/20 09:46:21;;;;;;;10.35;2.50;;;;;;;;;;4975708;28;20073;-67
2024/02/20 09:48:50;;;;;;;18.67;3.97;;;;;;;;;;4968996;28;20082;-69
2024/02/20 09:51:20;;;;;;;22.17;7.03;;;;;;;;;;4977633;28;20595;-70
2024/02/20 09:53:55;;;;;;;17.27;3.85;;;;;;;;;;4956641;27;20598;-70
2024/02/20 09:56:25;;;;;;;18.77;3.33;;;;;;;;;;4992510;28;20061;-71
2024/02/20 09:58:52;;;;;;;15.05;2.88;;;;;;;;;;4982924;28;20054;-69
2024/02/20 10:01:37;;;;;;;12.10;2.70;;;;;;;;;;4976635;28;20164;-71
2024/02/20 10:04:07;;;;;;;10.80;2.38;;;;;;;;;;4950095;28;20583;-69
2024/02/20 10:06:38;;;;;;;21.38;4.97;;;;;;;;;;4964726;28;20054;-70
2024/02/20 10:09:09;;;;;;;20.35;4.97;;;;;;;;;;4975995;28;20046;-71
2024/02/20 10:11:38;;;;;;;17.45;2.78;;;;;;;;;;4976525;28;20140;-69
2024/02/20 10:14:10;;;;;;;13.73;2.60;;;;;;;;;;4953190;28;20573;-68
2024/02/20 10:16:41;;;;;;;18.45;3.45;;;;;;;;;;4982183;28;20572;-71
2024/02/20 10:19:09;;;;;;;18.40;3.15;;;;;;;;;;4975993;28;20073;-67
2024/02/20 10:21:37;;;;;;;22.67;3.30;;;;;;;;;;4975545;28;20046;-72
2024/02/20 10:24:06;;;;;;;12.70;3.92;;;;;;;;;;4945939;28;20191;-71
2024/02/20 10:26:35;;;;;;;12.68;3.45;;;;;;;;;;4962641;28;20072;-68
2024/02/20 10:29:04;;;;;;;15.27;3.10;;;;;;;;;;4974795;28;20065;-71
2024/02/20 10:31:32;;;;;;;11.55;3.03;;;;;;;;;;4974918;28;20042;-69
2024/02/20 10:34:00;;;;;;;11.10;3.13;;;;;;;;;;4947620;28;20163;-69
2024/02/20 10:36:36;;;;;;;12.93;2.97;;;;;;;;;;4967198;28;20081;-69
2024/02/20 10:39:10;;;;;;;10.48;3.08;;;;;;;;;;4969387;28;20061;-67
2024/02/20 10:41:37;;;;;;;17.17;2.90;;;;;;;;;;4984848;28;20062;-66
2024/02/20 10:44:06;;;;;;;11.80;2.55;;;;;;;;;;4961536;28;20146;-67
2024/02/20 10:46:37;;;;;;;13.02;2.47;;;;;;;;;;4976458;28;20046;-66
2024/02/20 10:49:25;;;;;;;12.85;3.17;;;;;;;;;;4976369;28;20050;-68
2024/02/20 10:51:55;;;;;;;13.82;3.00;;;;;;;;;;4963528;28;20059;-69
2024/02/20 10:54:25;;;;;;;14.75;3.58;;;;;;;;;;4970613;28;20132;-67
2024/02/20 10:56:55;;;;;;;12.10;2.58;;;;;;;;;;4967840;28;20057;-67
2024/02/20 10:59:24;;;;;;;14.32;3.38;;;;;;;;;;4975061;28;20298;-68
2024/02/20 11:05:04;;;;;;;20.65;4.07;;;;;;;;;;4907282;28;20066;-65
2024/02/20 11:07:35;;;;;;;11.13;3.47;;;;;;;;;;4977472;28;20077;-68
2024/02/20 11:10:05;;;;;;;13.60;3.38;;;;;;;;;;4970440;28;20248;-69
2024/02/20 11:12:40;;;;;;;11.10;2.63;;;;;;;;;;4971629;28;20141;-67
2024/02/20 11:15:14;;;;;;;17.77;3.72;;;;;;;;;;4969741;28;20621;-69
2024/02/20 11:17:51;;;;;;;23.83;4.22;;;;;;;;;;4967998;28;20074;-67
2024/02/20 11:20:23;;;;;;;18.30;3.13;;;;;;;;;;4982875;28;20070;-66
2024/02/20 11:22:51;;;;;;;24.17;3.88;;;;;;;;;;4967680;28;20144;-68
2024/02/20 11:25:31;;;;;;;14.45;3.55;;;;;;;;;;4968506;28;20050;-69
2024/02/20 11:27:58;;;;;;;17.90;3.17;;;;;;;;;;4970616;28;20141;-66
2024/02/20 11:30:29;;;;;;;15.82;3.55;;;;;;;;;;4967078;28;20047;-69
2024/02/20 11:33:08;;;;;;;22.48;4.35;;;;;;;;;;4973740;28;20060;-67
2024/02/20 11:35:35;;;;;;;20.13;5.20;;;;;;;;;;4951444;28;20062;-67
2024/02/20 11:38:20;;;;;;;17.73;4.10;;;;;;;;;;4969441;28;20054;-63
2024/02/20 11:40:47;;;;;;;15.85;3.90;;;;;;;;;;4974831;28;20058;-70
2024/02/20 11:43:19;;;;;;;17.65;3.83;;;;;;;;;;4974296;28;20161;-70
2024/02/20 11:45:50;;;;;;;18.08;3.67;;;;;;;;;;4959321;28;20108;-69
2024/02/20 11:48:18;;;;;;;17.05;3.55;;;;;;;;;;4974002;28;20134;-68
2024/02/20 11:50:45;;;;;;;18.40;4.45;;;;;;;;;;4986681;28;20058;-68
2024/02/20 11:53:17;;;;;;;23.95;6.80;;;;;;;;;;4967402;28;20046;-66
2024/02/20 11:55:44;;;;;;;15.40;4.13;;;;;;;;;;4966610;28;20050;-65
2024/02/20 11:58:16;;;;;;;16.75;4.28;;;;;;;;;;4965862;28;20177;-66
2024/02/20 12:00:45;;;;;;;23.27;4.25;;;;;;;;;;4967838;28;20081;-67
2024/02/20 12:03:16;;;;;;;14.88;3.53;;;;;;;;;;4970640;28;20139;-68
2024/02/20 12:05:45;;;;;;;25.65;4.97;;;;;;;;;;4957878;28;20054;-68
2024/02/20 12:08:16;;;;;;;25.88;5.10;;;;;;;;;;4968928;28;20050;-65
2024/02/20 12:10:43;;;;;;;;;;;;;;;;;;4978428;28;20078;-70
2024/02/20 12:13:15;;;;;;;17.42;4.20;;;;;;;;;;4979905;28;20000;-67
2024/02/20 12:15:42;;;;;;;24.80;3.78;;;;;;;;;;4962997;28;20080;-68
2024/02/20 12:18:09;;;;;;;17.50;3.97;;;;;;;;;;4977234;28;20054;-66
2024/02/20 12:20:38;;;;;;;17.92;3.83;;;;;;;;;;4988276;28;20201;-66
2024/02/20 12:23:05;;;;;;;13.25;3.65;;;;;;;;;;4993195;28;20050;-70
2024/02/20 12:25:32;;;;;;;20.20;4.50;;;;;;;;;;4971803;28;20048;-66
2024/02/20 12:27:59;;;;;;;20.65;4.60;;;;;;;;;;4965455;28;20062;-65
2024/02/20 12:30:26;;;;;;;17.50;4.00;;;;;;;;;;4976803;28;20058;-67
2024/02/20 12:32:55;;;;;;;14.30;3.80;;;;;;;;;;4977296;28;20153;-67
2024/02/20 12:35:22;;;;;;;16.00;4.07;;;;;;;;;;4971441;28;20054;-67
2024/02/20 12:37:52;;;;;;;21.70;3.78;;;;;;;;;;4974562;28;20050;-69
2024/02/20 12:40:20;;;;;;;6.75;2.67;;;;;;;;;;4978261;28;20226;-69
2024/02/20 12:42:46;;;;;;;19.02;3.72;;;;;;;;;;4977031;28;20069;-70
2024/02/20 12:45:21;;;;;;;23.90;4.35;;;;;;;;;;4974151;28;20050;-67
2024/02/20 12:47:51;;;;;;;17.48;3.95;;;;;;;;;;4978671;28;20082;-65
2024/02/20 12:50:19;;;;;;;18.55;4.25;;;;;;;;;;4977588;28;20054;-67
2024/02/20 12:52:47;;;;;;;26.27;4.05;;;;;;;;;;4977267;28;20182;-69
2024/02/20 12:55:15;;;;;;;13.75;4.28;;;;;;;;;;4970419;28;20054;-65
2024/02/20 12:58:01;;;;;;;22.63;4.13;;;;;;;;;;4977382;28;20507;-69
2024/02/20 13:00:28;;;;;;;24.92;4.18;;;;;;;;;;4991724;28;20054;-68
2024/02/20 13:02:57;;;;;;;19.38;4.07;;;;;;;;;;4978562;28;20077;-69
2024/02/20 13:05:24;;;;;;;20.05;4.05;;;;;;;;;;4941426;28;20069;-68
2024/02/20 13:07:56;;;;;;;26.70;4.53;;;;;;;;;;4974865;28;20052;-66
2024/02/20 13:10:26;;;;;;;22.27;6.53;;;;;;;;;;4976175;28;20061;-67
2024/02/20 13:12:59;;;;;;;25.73;6.38;;;;;;;;;;4977485;28;20058;-66
2024/02/20 13:15:27;;;;;;;22.17;5.00;;;;;;;;;;4971423;28;20054;-69
2024/02/20 13:17:55;;;;;;;19.20;4.70;;;;;;;;;;4956522;28;20463;-69
2024/02/20 13:20:24;;;;;;;21.37;4.37;;;;;;;;;;4987124;28;20054;-67
2024/02/20 13:22:51;;;;;;;20.02;4.55;;;;;;;;;;4973395;28;20488;-69
2024/02/20 13:25:20;;;;;;;16.25;4.35;;;;;;;;;;4965228;28;20069;-68
2024/02/20 13:27:50;;;;;;;18.48;3.70;;;;;;;;;;4969193;28;20069;-68
2024/02/20 13:30:17;;;;;;;15.52;4.25;;;;;;;;;;4992940;28;20058;-69
2024/02/20 13:32:44;;;;;;;27.05;4.70;;;;;;;;;;4976168;28;20062;-66
2024/02/20 13:35:14;;;;;;;18.92;3.88;;;;;;;;;;4963311;28;20065;-68
2024/02/20 13:37:42;;;;;;;21.33;4.93;;;;;;;;;;4976676;28;20115;-68
2024/02/20 13:40:16;;;;;;;15.98;4.68;;;;;;;;;;4977280;28;20066;-68
2024/02/20 13:42:43;;;;;;;26.40;5.15;;;;;;;;;;4986153;28;20052;-70
2024/02/20 13:45:13;;;;;;;17.02;4.82;;;;;;;;;;4969133;28;20159;-70
2024/02/20 13:47:41;;;;;;;13.80;4.60;;;;;;;;;;4977831;28;20062;-71
2024/02/20 13:50:09;;;;;;;21.98;4.00;;;;;;;;;;4974461;28;20952;-66
2024/02/20 13:52:36;;;;;;;19.90;3.90;;;;;;;;;;5004524;28;20079;-65
2024/02/20 13:55:03;;;;;;;19.40;3.78;;;;;;;;;;4968373;28;20159;-67
2024/02/20 13:57:30;;;;;;;14.45;3.40;;;;;;;;;;4968859;28;20100;-68
2024/02/20 14:00:01;;;;;;;23.30;3.05;;;;;;;;;;4971698;28;20039;-67
2024/02/20 14:02:29;;;;;;;16.23;2.92;;;;;;;;;;4975616;28;20304;-68
2024/02/20 14:04:56;;;;;;;;;;;;;;;;;;4972695;28;20053;-70
2024/02/20 14:07:24;;;;;;;14.68;2.67;;;;;;;;;;4968288;28;19979;-68
2024/02/20 14:09:52;;;;;;;11.30;2.40;;;;;;;;;;4966862;28;20119;-67
2024/02/20 14:13:06;;;;;;;16.08;2.63;;;;;;;;;;4971641;28;20046;-68
2024/02/20 14:15:49;;;;;;;14.20;2.33;;;;;;;;;;4969550;28;20101;-67
2024/02/20 14:18:19;;;;;;;25.70;3.28;;;;;;;;;;4965087;28;20108;-65
2024/02/20 14:20:46;;;;;;;25.17;3.28;;;;;;;;;;4976863;28;20187;-68
2024/02/20 14:23:13;;;;;;;20.50;3.20;;;;;;;;;;4976037;28;20137;-69
2024/02/20 14:25:49;;;;;;;14.35;3.17;;;;;;;;;;4969855;28;20058;-67
2024/02/20 14:28:16;;;;;;;16.98;3.40;;;;;;;;;;4975515;28;20100;-70
2024/02/20 14:30:44;;;;;;;19.17;3.00;;;;;;;;;;4976192;28;20141;-66
2024/02/20 14:33:11;;;;;;;11.73;2.70;;;;;;;;;;4976140;28;20076;-69
2024/02/20 14:35:40;;;;;;;20.20;2.88;;;;;;;;;;4984620;28;20054;-67
2024/02/20 14:38:08;;;;;;;18.58;2.95;;;;;;;;;;4973617;28;20044;-66
2024/02/20 14:40:35;;;;;;;13.68;3.50;;;;;;;;;;4971968;28;20054;-66
2024/02/20 14:43:03;;;;;;;11.48;2.45;;;;;;;;;;4975079;28;20053;-66
2024/02/20 14:45:30;;;;;;;15.45;2.70;;;;;;;;;;4961664;28;20149;-67